sensor_id;sensor_type;location;lat;lon;timestamp;pressure;altitude;pressure_sealevel;temperature;humidity
33454;BME280;39400;49.744;7.012;2022-09-17T17:17:39;95914.16;;;10.91;100.00
33454;BME280;39400;49.744;7.012;2022-09-17T17:20:07;95915.00;;;10.63;100.00
33454;BME280;39400;49.744;7.012;2022-09-17T17:22:36;95915.41;;;10.58;100.00
33454;BME280;39400;49.744;7.012;2022-09-17T17:25:04;95919.75;;;10.52;100.00
33454;BME280;39400;49.744;7.012;2022-09-17T17:27:32;95922.88;;;10.57;100.00
33454;BME280;39400;49.744;7.012;2022-09-17T17:30:00;95923.25;;;10.63;100.00
33454;BME280;39400;49.744;7.012;2022-09-17T17:32:33;95917.38;;;10.61;100.00
33454;BME280;39400;49.744;7.012;2022-09-17T17:35:01;95924.47;;;10.47;100.00
33454;BME280;39400;49.744;7.012;2022-09-17T17:37:29;95926.03;;;10.34;100.00
33454;BME280;39400;49.744;7.012;2022-09-17T17:39:56;95914.66;;;10.36;100.00
33454;BME280;39400;49.744;7.012;2022-09-17T17:42:24;95919.34;;;10.28;100.00
33454;BME280;39400;49.744;7.012;2022-09-17T17:44:51;95921.28;;;10.24;100.00
33454;BME280;39400;49.744;7.012;2022-09-17T17:47:18;95930.28;;;9.89;100.00
33454;BME280;39400;49.744;7.012;2022-09-17T17:49:45;95923.97;;;9.67;100.00
33454;BME280;39400;49.744;7.012;2022-09-17T17:52:14;95929.03;;;9.61;100.00
33454;BME280;39400;49.744;7.012;2022-09-17T17:54:41;95932.19;;;9.67;100.00
33454;BME280;39400;49.744;7.012;2022-09-17T17:57:08;95929.00;;;9.50;100.00
33454;BME280;39400;49.744;7.012;2022-09-17T17:59:37;95923.97;;;9.74;100.00
33454;BME280;39400;49.744;7.012;2022-09-17T18:02:04;95924.34;;;9.76;100.00
33454;BME280;39400;49.744;7.012;2022-09-17T18:04:31;95922.00;;;9.71;100.00
33454;BME280;39400;49.744;7.012;2022-09-17T18:06:59;95936.03;;;9.51;100.00
33454;BME280;39400;49.744;7.012;2022-09-17T18:09:26;95936.06;;;9.55;100.00
33454;BME280;39400;49.744;7.012;2022-09-17T18:11:53;95937.69;;;9.70;100.00
33454;BME280;39400;49.744;7.012;2022-09-17T18:14:21;95944.25;;;9.44;100.00
33454;BME280;39400;49.744;7.012;2022-09-17T18:16:48;95957.19;;;9.40;100.00
33454;BME280;39400;49.744;7.012;2022-09-17T18:19:15;95956.03;;;9.52;100.00
33454;BME280;39400;49.744;7.012;2022-09-17T18:21:42;95958.66;;;9.20;100.00
33454;BME280;39400;49.744;7.012;2022-09-17T18:24:09;95964.09;;;9.13;100.00
33454;BME280;39400;49.744;7.012;2022-09-17T18:26:36;95967.63;;;9.10;100.00
33454;BME280;39400;49.744;7.012;2022-09-17T18:29:03;95973.53;;;9.15;100.00
33454;BME280;39400;49.744;7.012;2022-09-17T18:31:34;95972.41;;;9.31;100.00
33454;BME280;39400;49.744;7.012;2022-09-17T18:34:03;95966.44;;;9.11;100.00
33454;BME280;39400;49.744;7.012;2022-09-17T18:36:32;95982.19;;;9.28;100.00
33454;BME280;39400;49.744;7.012;2022-09-17T18:39:02;95988.53;;;9.39;100.00
33454;BME280;39400;49.744;7.012;2022-09-17T18:41:50;95988.41;;;9.18;100.00
33454;BME280;39400;49.744;7.012;2022-09-17T18:44:18;95978.22;;;9.15;100.00
33454;BME280;39400;49.744;7.012;2022-09-17T18:46:47;95988.47;;;9.25;100.00
33454;BME280;39400;49.744;7.012;2022-09-17T18:49:16;95988.47;;;9.25;100.00
33454;BME280;39400;49.744;7.012;2022-09-17T18:51:43;95990.16;;;9.47;100.00
33454;BME280;39400;49.744;7.012;2022-09-17T18:54:10;95987.69;;;9.28;100.00
33454;BME280;39400;49.744;7.012;2022-09-17T18:56:40;95988.53;;;9.39;100.00
33454;BME280;39400;49.744;7.012;2022-09-17T18:59:09;95984.94;;;9.28;100.00
33454;BME280;39400;49.744;7.012;2022-09-17T19:01:36;95999.25;;;8.96;100.00
33454;BME280;39400;49.744;7.012;2022-09-17T19:04:04;96004.31;;;8.87;100.00
33454;BME280;39400;49.744;7.012;2022-09-17T19:06:33;96005.75;;;9.29;100.00
33454;BME280;39400;49.744;7.012;2022-09-17T19:09:02;96008.78;;;9.17;100.00
33454;BME280;39400;49.744;7.012;2022-09-17T19:11:30;96002.31;;;8.84;100.00
33454;BME280;39400;49.744;7.012;2022-09-17T19:13:57;96008.00;;;9.13;100.00
33454;BME280;39400;49.744;7.012;2022-09-17T19:16:24;96011.78;;;8.90;100.00
33454;BME280;39400;49.744;7.012;2022-09-17T19:18:51;96021.19;;;8.96;100.00
33454;BME280;39400;49.744;7.012;2022-09-17T19:21:19;96015.19;;;8.73;100.00
33454;BME280;39400;49.744;7.012;2022-09-17T19:23:49;96018.78;;;8.84;100.00
33454;BME280;39400;49.744;7.012;2022-09-17T19:26:26;96014.75;;;8.71;100.00
33454;BME280;39400;49.744;7.012;2022-09-17T19:28:54;96012.44;;;8.73;100.00
33454;BME280;39400;49.744;7.012;2022-09-17T19:31:24;96017.78;;;8.58;100.00
33454;BME280;39400;49.744;7.012;2022-09-17T19:33:51;96017.13;;;8.76;100.00
33454;BME280;39400;49.744;7.012;2022-09-17T19:36:19;96022.16;;;8.67;100.00
33454;BME280;39400;49.744;7.012;2022-09-17T19:38:46;96022.50;;;8.62;100.00
33454;BME280;39400;49.744;7.012;2022-09-17T19:41:16;96034.47;;;8.43;100.00
33454;BME280;39400;49.744;7.012;2022-09-17T19:43:44;96046.69;;;8.49;100.00
33454;BME280;39400;49.744;7.012;2022-09-17T19:46:15;96044.44;;;8.62;100.00
33454;BME280;39400;49.744;7.012;2022-09-17T19:48:44;96043.28;;;8.63;100.00
33454;BME280;39400;49.744;7.012;2022-09-17T19:51:11;96045.13;;;8.51;100.00
33454;BME280;39400;49.744;7.012;2022-09-17T19:53:39;96051.56;;;8.32;100.00
33454;BME280;39400;49.744;7.012;2022-09-17T19:56:08;96057.59;;;8.45;100.00
33454;BME280;39400;49.744;7.012;2022-09-17T19:58:36;96049.72;;;8.40;100.00
33454;BME280;39400;49.744;7.012;2022-09-17T20:01:03;96052.78;;;8.35;100.00
33454;BME280;39400;49.744;7.012;2022-09-17T20:03:30;96054.88;;;8.45;100.00
33454;BME280;39400;49.744;7.012;2022-09-17T20:06:03;96050.25;;;8.19;100.00
33454;BME280;39400;49.744;7.012;2022-09-17T20:08:31;96049.19;;;8.31;100.00
33454;BME280;39400;49.744;7.012;2022-09-17T20:11:05;96048.78;;;8.25;100.00
33454;BME280;39400;49.744;7.012;2022-09-17T20:13:33;96051.97;;;8.34;100.00
33454;BME280;39400;49.744;7.012;2022-09-17T20:16:03;96050.56;;;8.48;100.00
33454;BME280;39400;49.744;7.012;2022-09-17T20:18:30;96054.34;;;8.36;100.00
33454;BME280;39400;49.744;7.012;2022-09-17T20:20:57;96058.88;;;8.18;100.00
33454;BME280;39400;49.744;7.012;2022-09-17T20:23:31;96056.75;;;8.41;100.00
33454;BME280;39400;49.744;7.012;2022-09-17T20:25:58;96051.13;;;8.27;100.00
33454;BME280;39400;49.744;7.012;2022-09-17T20:28:26;96056.72;;;8.38;100.00
33454;BME280;39400;49.744;7.012;2022-09-17T20:31:04;96046.97;;;8.40;100.00
33454;BME280;39400;49.744;7.012;2022-09-17T20:33:32;96038.88;;;8.54;100.00
33454;BME280;39400;49.744;7.012;2022-09-17T20:36:00;96049.22;;;8.72;100.00
33454;BME280;39400;49.744;7.012;2022-09-17T20:38:28;96040.00;;;8.46;100.00
33454;BME280;39400;49.744;7.012;2022-09-17T20:41:16;96058.44;;;8.49;100.00
33454;BME280;39400;49.744;7.012;2022-09-17T20:43:46;96050.50;;;8.41;100.00
33454;BME280;39400;49.744;7.012;2022-09-17T20:46:18;96052.53;;;8.47;100.00
33454;BME280;39400;49.744;7.012;2022-09-17T20:48:45;96056.16;;;8.58;100.00
33454;BME280;39400;49.744;7.012;2022-09-17T20:51:14;96055.38;;;8.58;100.00
33454;BME280;39400;49.744;7.012;2022-09-17T20:53:42;96054.47;;;8.47;100.00
33454;BME280;39400;49.744;7.012;2022-09-17T20:56:11;96051.13;;;8.27;100.00
33454;BME280;39400;49.744;7.012;2022-09-17T20:58:41;96060.50;;;8.26;100.00
33454;BME280;39400;49.744;7.012;2022-09-17T21:01:19;96052.63;;;8.21;100.00
33454;BME280;39400;49.744;7.012;2022-09-17T21:03:51;96058.09;;;8.21;100.00
33454;BME280;39400;49.744;7.012;2022-09-17T21:06:21;96053.53;;;8.32;100.00
33454;BME280;39400;49.744;7.012;2022-09-17T21:08:50;96053.91;;;8.30;100.00
33454;BME280;39400;49.744;7.012;2022-09-17T21:11:18;96054.03;;;8.41;100.00
33454;BME280;39400;49.744;7.012;2022-09-17T21:13:46;96054.69;;;8.31;100.00
33454;BME280;39400;49.744;7.012;2022-09-17T21:16:14;96035.44;;;8.24;100.00
33454;BME280;39400;49.744;7.012;2022-09-17T21:18:42;96046.56;;;8.38;100.00
33454;BME280;39400;49.744;7.012;2022-09-17T21:21:14;96044.97;;;8.37;100.00
33454;BME280;39400;49.744;7.012;2022-09-17T21:23:42;96051.13;;;8.27;100.00
33454;BME280;39400;49.744;7.012;2022-09-17T21:26:12;96054.25;;;8.25;100.00
33454;BME280;39400;49.744;7.012;2022-09-17T21:28:41;96047.66;;;8.33;100.00
33454;BME280;39400;49.744;7.012;2022-09-17T21:33:41;96050.09;;;8.39;100.00
33454;BME280;39400;49.744;7.012;2022-09-17T21:36:20;96055.38;;;8.58;100.00
33454;BME280;39400;49.744;7.012;2022-09-17T21:38:55;96052.97;;;8.53;100.00
33454;BME280;39400;49.744;7.012;2022-09-17T21:41:24;96053.69;;;8.46;100.00
33454;BME280;39400;49.744;7.012;2022-09-17T21:43:52;96061.19;;;8.53;100.00
33454;BME280;39400;49.744;7.012;2022-09-17T21:46:21;96062.00;;;8.57;100.00
33454;BME280;39400;49.744;7.012;2022-09-17T21:48:49;96063.75;;;8.35;100.00
33454;BME280;39400;49.744;7.012;2022-09-17T21:51:19;96066.16;;;8.40;100.00
33454;BME280;39400;49.744;7.012;2022-09-17T21:53:54;96062.63;;;8.40;100.00
33454;BME280;39400;49.744;7.012;2022-09-17T21:56:22;96067.75;;;8.45;100.00
33454;BME280;39400;49.744;7.012;2022-09-17T21:58:52;96064.59;;;8.39;100.00
33454;BME280;39400;49.744;7.012;2022-09-17T22:01:25;96068.06;;;8.36;100.00
33454;BME280;39400;49.744;7.012;2022-09-17T22:03:54;96063.56;;;8.54;100.00
33454;BME280;39400;49.744;7.012;2022-09-17T22:06:27;96068.63;;;8.52;100.00
33454;BME280;39400;49.744;7.012;2022-09-17T22:08:56;96066.16;;;8.40;100.00
33454;BME280;39400;49.744;7.012;2022-09-17T22:11:30;96064.59;;;8.39;100.00
33454;BME280;39400;49.744;7.012;2022-09-17T22:14:19;96056.47;;;8.50;100.00
33454;BME280;39400;49.744;7.012;2022-09-17T22:16:49;96057.50;;;8.38;100.00
33454;BME280;39400;49.744;7.012;2022-09-17T22:19:19;96065.72;;;8.38;100.00
33454;BME280;39400;49.744;7.012;2022-09-17T22:21:48;96060.59;;;8.33;100.00
33454;BME280;39400;49.744;7.012;2022-09-17T22:24:18;96055.28;;;8.51;100.00
33454;BME280;39400;49.744;7.012;2022-09-17T22:26:47;96070.06;;;8.39;100.00
33454;BME280;39400;49.744;7.012;2022-09-17T22:29:23;96062.16;;;8.34;100.00
33454;BME280;39400;49.744;7.012;2022-09-17T22:31:50;96062.81;;;8.57;100.00
33454;BME280;39400;49.744;7.012;2022-09-17T22:34:20;96049.28;;;8.38;100.00
33454;BME280;39400;49.744;7.012;2022-09-17T22:36:47;96061.41;;;8.37;100.00
33454;BME280;39400;49.744;7.012;2022-09-17T22:39:15;96058.59;;;8.30;100.00
33454;BME280;39400;49.744;7.012;2022-09-17T22:41:45;96060.69;;;8.40;100.00
33454;BME280;39400;49.744;7.012;2022-09-17T22:44:14;96062.94;;;8.34;100.00
33454;BME280;39400;49.744;7.012;2022-09-17T22:46:43;96058.75;;;8.44;100.00
33454;BME280;39400;49.744;7.012;2022-09-17T22:49:13;96053.53;;;8.32;100.00
33454;BME280;39400;49.744;7.012;2022-09-17T22:51:41;96059.31;;;8.23;100.00
33454;BME280;39400;49.744;7.012;2022-09-17T22:54:10;96057.03;;;8.29;100.00
33454;BME280;39400;49.744;7.012;2022-09-17T22:56:38;96048.78;;;8.25;100.00
33454;BME280;39400;49.744;7.012;2022-09-17T22:59:05;96053.47;;;8.25;100.00
33454;BME280;39400;49.744;7.012;2022-09-17T23:01:34;96051.03;;;8.20;100.00
33454;BME280;39400;49.744;7.012;2022-09-17T23:04:04;96044.81;;;8.23;100.00
33454;BME280;39400;49.744;7.012;2022-09-17T23:06:34;96048.31;;;8.20;100.00
33454;BME280;39400;49.744;7.012;2022-09-17T23:09:02;96059.63;;;8.15;100.00
33454;BME280;39400;49.744;7.012;2022-09-17T23:11:32;96057.28;;;8.17;100.00
33454;BME280;39400;49.744;7.012;2022-09-17T23:14:00;96055.03;;;8.26;100.00
33454;BME280;39400;49.744;7.012;2022-09-17T23:16:39;96056.59;;;8.27;100.00
33454;BME280;39400;49.744;7.012;2022-09-17T23:19:07;96055.69;;;8.49;100.00
33454;BME280;39400;49.744;7.012;2022-09-17T23:21:36;96053.28;;;8.44;100.00
33454;BME280;39400;49.744;7.012;2022-09-17T23:24:03;96057.50;;;8.38;100.00
33454;BME280;39400;49.744;7.012;2022-09-17T23:26:31;96056.66;;;8.34;100.00
33454;BME280;39400;49.744;7.012;2022-09-17T23:29:00;96054.28;;;8.29;100.00
33454;BME280;39400;49.744;7.012;2022-09-17T23:31:31;96060.00;;;8.50;100.00
33454;BME280;39400;49.744;7.012;2022-09-17T23:34:01;96052.13;;;8.45;100.00
33454;BME280;39400;49.744;7.012;2022-09-17T23:36:30;96057.44;;;8.34;100.00
33454;BME280;39400;49.744;7.012;2022-09-17T23:38:58;96058.03;;;8.14;100.00
33454;BME280;39400;49.744;7.012;2022-09-17T23:41:28;96051.94;;;8.31;100.00
33454;BME280;39400;49.744;7.012;2022-09-17T23:43:57;96065.63;;;8.31;100.00
33454;BME280;39400;49.744;7.012;2022-09-17T23:46:27;96065.22;;;8.25;100.00
33454;BME280;39400;49.744;7.012;2022-09-17T23:48:55;96055.09;;;8.33;100.00
33454;BME280;39400;49.744;7.012;2022-09-17T23:51:24;96056.84;;;8.48;100.00
33454;BME280;39400;49.744;7.012;2022-09-17T23:53:53;96058.25;;;8.35;100.00
33454;BME280;39400;49.744;7.012;2022-09-17T23:56:23;96041.00;;;8.34;100.00
33454;BME280;39400;49.744;7.012;2022-09-17T23:58:54;96056.75;;;8.41;100.00
